Time;durP1;ratioP1;P1;durP2;ratioP2;P2;SDS_P1;SDS_P2;PMS_P1;PMS_P2;Temp;Humidity;BMP_temperature;BMP_pressure;BME280_temperature;BME280_humidity;BME280_pressure;Samples;Min_cycle;Max_cycle;Signal;HPM_P1;HPM_P2
2023/03/21 00:00:15;;;;;;;;;12.75;12.75;;;;;-147.17;100.00;-15917.19;5047242;28;51144;-49
2023/03/21 00:02:40;;;;;;;;;13.50;13.50;;;;;-147.17;100.00;-15917.19;5052091;28;51130;-48
2023/03/21 00:05:09;;;;;;;;;15.50;13.50;;;;;-147.17;100.00;-15917.19;5048854;28;51170;-50
2023/03/21 00:07:34;;;;;;;;;18.75;18.25;;;;;-147.17;100.00;-15917.19;5013841;28;51057;-48
2023/03/21 00:10:00;;;;;;;;;13.00;12.25;;;;;-147.17;100.00;-15917.19;5049996;28;51092;-48
2023/03/21 00:12:25;;;;;;;;;13.00;13.00;;;;;-147.17;100.00;-15917.19;5048226;28;51335;-47
2023/03/21 00:14:52;;;;;;;;;13.00;12.25;;;;;-147.17;100.00;-15917.19;5050528;28;51308;-49
2023/03/21 00:17:21;;;;;;;;;15.25;13.00;;;;;-147.17;100.00;-15917.19;5049751;28;51290;-49
2023/03/21 00:19:47;;;;;;;;;18.25;16.50;;;;;-147.17;100.00;-15917.19;5051712;28;51110;-49
2023/03/21 00:22:13;;;;;;;;;13.75;12.75;;;;;-147.17;100.00;-15917.19;5049923;28;51191;-48
2023/03/21 00:24:38;;;;;;;;;9.75;9.25;;;;;-147.17;100.00;-15917.19;5050914;28;51211;-51
2023/03/21 00:27:04;;;;;;;;;17.00;11.50;;;;;-147.17;100.00;-15917.19;5018197;28;51120;-49
2023/03/21 00:29:29;;;;;;;;;12.25;12.00;;;;;-147.17;100.00;-15917.19;5049918;28;51397;-48
2023/03/21 00:31:55;;;;;;;;;14.25;14.00;;;;;-147.17;100.00;-15917.19;5051199;28;51871;-46
2023/03/21 00:34:20;;;;;;;;;14.50;13.00;;;;;-147.17;100.00;-15917.19;5050482;28;51147;-53
2023/03/21 00:36:45;;;;;;;;;17.50;15.00;;;;;-147.17;100.00;-15917.19;5051298;28;51066;-48
2023/03/21 00:39:11;;;;;;;;;17.25;14.00;;;;;-147.17;100.00;-15917.19;5047525;28;51347;-50
2023/03/21 00:41:36;;;;;;;;;10.75;9.75;;;;;-147.17;100.00;-15917.19;5036902;28;52726;-49
2023/03/21 00:44:03;;;;;;;;;13.50;12.25;;;;;-147.17;100.00;-15917.19;5049094;28;51042;-49
2023/03/21 00:46:28;;;;;;;;;12.50;12.00;;;;;-147.17;100.00;-15917.19;5051588;28;51138;-49
2023/03/21 00:48:53;;;;;;;;;13.25;13.25;;;;;-147.17;100.00;-15917.19;5019704;28;51182;-47
2023/03/21 00:51:25;;;;;;;;;12.75;12.25;;;;;-147.17;100.00;-15917.19;5049548;28;53977;-49
2023/03/21 00:53:59;;;;;;;;;14.25;13.50;;;;;-147.17;100.00;-15917.19;5047268;28;51519;-49
2023/03/21 00:56:25;;;;;;;;;14.75;12.50;;;;;-147.17;100.00;-15917.19;5049673;28;51072;-48
2023/03/21 00:58:51;;;;;;;;;9.50;9.00;;;;;-147.17;100.00;-15917.19;5049641;28;51547;-46
2023/03/21 01:01:16;;;;;;;;;13.75;13.50;;;;;-147.17;100.00;-15917.19;5047352;28;52282;-49
2023/03/21 01:03:42;;;;;;;;;14.25;13.25;;;;;-147.17;100.00;-15917.19;5029918;28;51304;-48
2023/03/21 01:06:12;;;;;;;;;13.75;13.75;;;;;-147.17;100.00;-15917.19;5051859;28;51378;-48
2023/03/21 01:08:42;;;;;;;;;14.50;13.50;;;;;-147.17;100.00;-15917.19;5048370;28;51128;-48
2023/03/21 01:11:14;;;;;;;;;13.00;11.50;;;;;-147.17;100.00;-15917.19;5056879;28;51434;-49
2023/03/21 01:13:40;;;;;;;;;14.25;13.50;;;;;-147.17;100.00;-15917.19;5048422;28;51364;-47
2023/03/21 01:16:10;;;;;;;;;10.25;10.00;;;;;-147.17;100.00;-15917.19;5051117;28;51213;-50
2023/03/21 01:18:37;;;;;;;;;13.00;13.00;;;;;-147.17;100.00;-15917.19;5044682;28;51264;-49
2023/03/21 01:21:07;;;;;;;;;16.25;14.25;;;;;-147.17;100.00;-15917.19;5024922;28;52080;-50
2023/03/21 01:23:32;;;;;;;;;14.75;13.00;;;;;-147.17;100.00;-15917.19;5016589;28;51377;-49
2023/03/21 01:25:57;;;;;;;;;14.25;13.25;;;;;-147.17;100.00;-15917.19;5047293;28;51712;-49
2023/03/21 01:28:27;;;;;;;;;16.75;15.75;;;;;-147.17;100.00;-15917.19;5047184;28;53382;-49
2023/03/21 01:30:52;;;;;;;;;16.25;14.50;;;;;-147.17;100.00;-15917.19;5051782;28;52044;-49
2023/03/21 01:33:19;;;;;;;;;12.25;12.25;;;;;-147.17;100.00;-15917.19;5050743;28;51165;-48
2023/03/21 01:35:45;;;;;;;;;12.50;12.50;;;;;-147.17;100.00;-15917.19;5048393;28;51145;-47
2023/03/21 01:38:10;;;;;;;;;13.25;13.00;;;;;-147.17;100.00;-15917.19;5048175;28;51438;-49
2023/03/21 01:40:36;;;;;;;;;10.75;10.75;;;;;-147.17;100.00;-15917.19;5054054;28;51891;-49
2023/03/21 01:43:03;;;;;;;;;10.25;9.75;;;;;-147.17;100.00;-15917.19;5033954;28;50958;-50
2023/03/21 01:46:00;;;;;;;;;13.50;13.25;;;;;-147.17;100.00;-15917.19;5051771;28;51163;-48
2023/03/21 01:48:27;;;;;;;;;14.25;13.75;;;;;-147.17;100.00;-15917.19;5045578;28;51297;-49
2023/03/21 01:50:53;;;;;;;;;12.75;11.25;;;;;-147.17;100.00;-15917.19;5053791;28;51070;-49
2023/03/21 01:53:21;;;;;;;;;11.25;10.25;;;;;-147.17;100.00;-15917.19;5050093;28;51169;-48
2023/03/21 01:55:48;;;;;;;;;13.50;13.50;;;;;-147.17;100.00;-15917.19;5052197;28;50987;-46
2023/03/21 01:58:17;;;;;;;;;12.75;12.00;;;;;-147.17;100.00;-15917.19;5052441;28;51388;-46
2023/03/21 02:00:44;;;;;;;;;13.00;11.25;;;;;-147.17;100.00;-15917.19;5052284;28;52093;-48
2023/03/21 02:03:15;;;;;;;;;10.25;10.25;;;;;-147.17;100.00;-15917.19;5059805;28;51101;-49
2023/03/21 02:05:55;;;;;;;;;12.00;10.00;;;;;-147.17;100.00;-15917.19;5054240;28;51072;-48
2023/03/21 02:08:22;;;;;;;;;12.00;9.00;;;;;-147.17;100.00;-15917.19;5034849;28;51538;-49
2023/03/21 02:10:48;;;;;;;;;12.75;12.25;;;;;-147.17;100.00;-15917.19;5047560;28;51921;-47
2023/03/21 02:13:14;;;;;;;;;12.00;10.25;;;;;-147.17;100.00;-15917.19;5015180;28;51141;-49
2023/03/21 02:15:46;;;;;;;;;10.25;10.25;;;;;-147.17;100.00;-15917.19;5053120;28;50928;-49
2023/03/21 02:18:42;;;;;;;;;12.50;11.50;;;;;-147.17;100.00;-15917.19;5051932;28;51045;-50
2023/03/21 02:21:28;;;;;;;;;12.00;11.25;;;;;-147.17;100.00;-15917.19;5053295;28;52005;-48
2023/03/21 02:24:15;;;;;;;;;10.75;9.00;;;;;-147.17;100.00;-15917.19;5052672;28;51118;-48
2023/03/21 02:26:55;;;;;;;;;9.25;9.25;;;;;-147.17;100.00;-15917.19;5050318;28;51126;-54
2023/03/21 02:29:29;;;;;;;;;13.25;11.25;;;;;-147.17;100.00;-15917.19;5050028;28;51684;-48
2023/03/21 02:32:24;;;;;;;;;7.67;7.00;;;;;-147.17;100.00;-15917.19;5047829;28;51164;-48
2023/03/21 02:34:59;;;;;;;;;9.00;8.00;;;;;-147.17;100.00;-15917.19;5044402;28;51136;-48
2023/03/21 02:37:44;;;;;;;;;7.00;7.00;;;;;-147.17;100.00;-15917.19;5051676;28;51088;-49
2023/03/21 02:40:19;;;;;;;;;8.50;8.50;;;;;-147.17;100.00;-15917.19;5053772;28;51283;-47
2023/03/21 02:42:53;;;;;;;;;7.25;7.25;;;;;-147.17;100.00;-15917.19;5050142;28;52532;-49
2023/03/21 02:45:24;;;;;;;;;8.33;7.00;;;;;-147.17;100.00;-15917.19;5032470;28;51225;-49
2023/03/21 02:48:03;;;;;;;;;6.00;6.00;;;;;-147.17;100.00;-15917.19;5052005;28;51395;-48
2023/03/21 02:50:36;;;;;;;;;6.00;6.00;;;;;-147.17;100.00;-15917.19;5053537;28;51354;-47
2023/03/21 02:53:05;;;;;;;;;5.50;5.50;;;;;-147.17;100.00;-15917.19;5050788;28;51185;-51
2023/03/21 02:55:33;;;;;;;;;6.00;5.50;;;;;-147.17;100.00;-15917.19;5050721;28;51257;-45
2023/03/21 02:58:00;;;;;;;;;5.25;4.75;;;;;-147.17;100.00;-15917.19;5042095;28;51287;-47
2023/03/21 03:00:31;;;;;;;;;6.00;5.33;;;;;-147.17;100.00;-15917.19;5037455;28;51044;-49
2023/03/21 03:02:58;;;;;;;;;6.25;5.25;;;;;-147.17;100.00;-15917.19;5033298;28;52130;-48
2023/03/21 03:05:27;;;;;;;;;5.67;5.67;;;;;-147.17;100.00;-15917.19;5050653;28;50973;-48
2023/03/21 03:08:11;;;;;;;;;6.00;4.33;;;;;-147.17;100.00;-15917.19;5022673;28;51090;-48
2023/03/21 03:11:13;;;;;;;;;6.00;5.00;;;;;-147.17;100.00;-15917.19;5036924;28;51185;-50
2023/03/21 03:13:45;;;;;;;;;12.25;7.50;;;;;-147.17;100.00;-15917.19;5043550;28;52057;-49
2023/03/21 03:16:10;;;;;;;;;6.00;5.00;;;;;-147.17;100.00;-15917.19;5043194;28;51414;-47
2023/03/21 03:18:44;;;;;;;;;5.00;4.50;;;;;-147.17;100.00;-15917.19;5028429;28;51364;-50
2023/03/21 03:21:26;;;;;;;;;7.00;7.00;;;;;-147.17;100.00;-15917.19;5018967;28;51346;-50
2023/03/21 03:24:15;;;;;;;;;7.00;6.50;;;;;-147.17;100.00;-15917.19;5033361;28;52353;-47
2023/03/21 03:26:59;;;;;;;;;5.50;4.75;;;;;-147.17;100.00;-15917.19;5037128;28;51187;-49
2023/03/21 03:29:27;;;;;;;;;6.00;5.00;;;;;-147.17;100.00;-15917.19;5025155;28;51110;-49
2023/03/21 03:32:16;;;;;;;;;6.00;5.25;;;;;-147.17;100.00;-15917.19;5035727;28;51188;-48
2023/03/21 03:34:55;;;;;;;;;7.00;6.75;;;;;-147.17;100.00;-15917.19;5031809;28;51263;-47
2023/03/21 03:37:25;;;;;;;;;6.00;5.00;;;;;-147.17;100.00;-15917.19;5029747;28;52705;-47
2023/03/21 03:40:07;;;;;;;;;5.50;5.00;;;;;-147.17;100.00;-15917.19;5014810;28;51201;-47
2023/03/21 03:42:52;;;;;;;;;5.50;4.75;;;;;-147.17;100.00;-15917.19;5039483;28;51121;-46
2023/03/21 03:45:22;;;;;;;;;4.00;4.00;;;;;-147.17;100.00;-15917.19;5046303;28;51842;-47
2023/03/21 03:48:12;;;;;;;;;5.50;5.50;;;;;-147.17;100.00;-15917.19;5032317;28;51335;-48
2023/03/21 03:50:46;;;;;;;;;4.00;4.00;;;;;-147.17;100.00;-15917.19;5033510;28;51216;-48
2023/03/21 03:53:30;;;;;;;;;5.75;5.75;;;;;-147.17;100.00;-15917.19;5031079;28;51019;-47
2023/03/21 03:55:57;;;;;;;;;5.00;5.00;;;;;-147.17;100.00;-15917.19;5035639;28;50987;-50
2023/03/21 03:58:24;;;;;;;;;5.00;5.00;;;;;-147.17;100.00;-15917.19;5046311;28;51091;-49
2023/03/21 04:00:51;;;;;;;;;3.00;3.00;;;;;-147.17;100.00;-15917.19;5041988;28;51071;-47
2023/03/21 04:03:17;;;;;;;;;5.50;5.25;;;;;-147.17;100.00;-15917.19;5044776;28;51363;-50
2023/03/21 04:05:45;;;;;;;;;5.25;4.75;;;;;-147.17;100.00;-15917.19;5033059;28;52181;-48
2023/03/21 04:08:10;;;;;;;;;5.25;5.25;;;;;-147.17;100.00;-15917.19;5035360;28;51260;-47
2023/03/21 04:10:35;;;;;;;;;4.67;4.67;;;;;-147.17;100.00;-15917.19;5021107;28;51336;-50
2023/03/21 04:13:01;;;;;;;;;6.00;4.67;;;;;-147.17;100.00;-15917.19;5025472;28;51213;-48
2023/03/21 04:15:26;;;;;;;;;6.00;6.00;;;;;-147.17;100.00;-15917.19;5043551;28;51059;-46
2023/03/21 04:17:52;;;;;;;;;5.25;5.25;;;;;-147.17;100.00;-15917.19;5033532;28;51095;-47
2023/03/21 04:20:18;;;;;;;;;6.00;5.00;;;;;-147.17;100.00;-15917.19;5013488;28;51185;-47
2023/03/21 04:22:43;;;;;;;;;4.33;4.33;;;;;-147.17;100.00;-15917.19;5034617;28;51515;-47
2023/03/21 04:25:09;;;;;;;;;8.00;7.00;;;;;-147.17;100.00;-15917.19;5038116;28;52244;-51
2023/03/21 04:27:35;;;;;;;;;4.00;4.00;;;;;-147.17;100.00;-15917.19;5033378;28;51012;-48
2023/03/21 04:30:00;;;;;;;;;2.00;2.00;;;;;-147.17;100.00;-15917.19;5026931;28;51284;-50
2023/03/21 04:32:26;;;;;;;;;4.25;4.25;;;;;-147.17;100.00;-15917.19;5031669;28;51298;-49
2023/03/21 04:34:53;;;;;;;;;6.00;6.00;;;;;-147.17;100.00;-15917.19;5029086;28;51392;-51
2023/03/21 04:37:22;;;;;;;;;5.00;5.00;;;;;-147.17;100.00;-15917.19;5030983;28;51082;-49
2023/03/21 04:39:48;;;;;;;;;4.00;4.00;;;;;-147.17;100.00;-15917.19;5027953;28;51030;-49
2023/03/21 04:42:15;;;;;;;;;5.75;5.00;;;;;-147.17;100.00;-15917.19;5037647;28;50973;-49
2023/03/21 04:44:41;;;;;;;;;4.25;4.25;;;;;-147.17;100.00;-15917.19;5037110;28;52090;-48
2023/03/21 04:47:07;;;;;;;;;5.00;4.33;;;;;-147.17;100.00;-15917.19;5030030;28;51533;-47
2023/03/21 04:49:32;;;;;;;;;4.67;4.67;;;;;-147.17;100.00;-15917.19;5030866;28;51025;-48
2023/03/21 04:51:58;;;;;;;;;4.00;4.00;;;;;-147.17;100.00;-15917.19;5043945;28;51251;-49
2023/03/21 04:54:24;;;;;;;;;4.00;4.00;;;;;-147.17;100.00;-15917.19;5032882;28;51824;-49
2023/03/21 04:56:51;;;;;;;;;4.00;4.00;;;;;-147.17;100.00;-15917.19;5041509;28;51464;-51
2023/03/21 04:59:17;;;;;;;;;6.00;5.00;;;;;-147.17;100.00;-15917.19;5036007;28;51386;-48
2023/03/21 05:01:43;;;;;;;;;6.25;6.25;;;;;-147.17;100.00;-15917.19;5022997;28;50993;-50
2023/03/21 05:04:11;;;;;;;;;4.00;4.00;;;;;-147.17;100.00;-15917.19;5033807;28;51897;-47
2023/03/21 05:06:37;;;;;;;;;5.75;5.00;;;;;-147.17;100.00;-15917.19;5036944;28;51136;-48
2023/03/21 05:09:04;;;;;;;;;5.00;5.00;;;;;-147.17;100.00;-15917.19;5025056;28;51156;-47
2023/03/21 05:11:31;;;;;;;;;6.25;5.75;;;;;-147.17;100.00;-15917.19;5046732;28;51320;-47
2023/03/21 05:13:57;;;;;;;;;5.00;4.50;;;;;-147.17;100.00;-15917.19;5028743;28;52975;-48
2023/03/21 05:16:25;;;;;;;;;5.00;5.00;;;;;-147.17;100.00;-15917.19;5037560;28;51433;-50
2023/03/21 05:18:53;;;;;;;;;5.00;5.00;;;;;-147.17;100.00;-15917.19;5034833;28;51125;-50
2023/03/21 05:21:20;;;;;;;;;3.25;3.25;;;;;-147.17;100.00;-15917.19;5029337;28;51137;-48
2023/03/21 05:23:52;;;;;;;;;6.00;6.00;;;;;-147.17;100.00;-15917.19;5032116;28;52126;-50
2023/03/21 05:26:19;;;;;;;;;6.00;6.00;;;;;-147.17;100.00;-15917.19;5041944;28;51099;-47
2023/03/21 05:28:46;;;;;;;;;7.00;5.75;;;;;-147.17;100.00;-15917.19;5038122;28;51264;-50
2023/03/21 05:31:15;;;;;;;;;6.75;5.75;;;;;-147.17;100.00;-15917.19;5027489;28;51460;-49
2023/03/21 05:33:41;;;;;;;;;5.00;5.00;;;;;-147.17;100.00;-15917.19;5032619;28;51140;-48
2023/03/21 05:36:08;;;;;;;;;5.25;4.50;;;;;-147.17;100.00;-15917.19;5041325;28;51315;-49
2023/03/21 05:38:33;;;;;;;;;6.75;6.00;;;;;-147.17;100.00;-15917.19;5027856;28;51093;-48
2023/03/21 05:40:59;;;;;;;;;7.00;4.75;;;;;-147.17;100.00;-15917.19;5034689;28;51314;-49
2023/03/21 05:43:25;;;;;;;;;7.00;7.00;;;;;-147.17;100.00;-15917.19;5030209;28;51582;-46
2023/03/21 05:45:50;;;;;;;;;5.50;5.50;;;;;-147.17;100.00;-15917.19;5031568;28;51234;-47
2023/03/21 05:48:15;;;;;;;;;6.00;5.75;;;;;-147.17;100.00;-15917.19;5022065;28;51694;-48
2023/03/21 05:50:41;;;;;;;;;5.25;5.00;;;;;-147.17;100.00;-15917.19;5031501;28;51088;-48
2023/03/21 05:53:06;;;;;;;;;5.75;5.50;;;;;-147.17;100.00;-15917.19;5036935;28;52637;-48
2023/03/21 05:55:32;;;;;;;;;7.25;6.75;;;;;-147.17;100.00;-15917.19;5012050;28;51421;-49
2023/03/21 05:57:57;;;;;;;;;6.00;6.00;;;;;-147.17;100.00;-15917.19;5046504;28;51330;-49
2023/03/21 06:00:23;;;;;;;;;8.00;7.00;;;;;-147.17;100.00;-15917.19;5030171;28;50889;-48
2023/03/21 06:02:48;;;;;;;;;8.50;8.00;;;;;-147.17;100.00;-15917.19;5019752;28;51748;-50
2023/03/21 06:05:14;;;;;;;;;7.00;7.00;;;;;-147.17;100.00;-15917.19;5034428;28;51013;-48
2023/03/21 06:07:39;;;;;;;;;7.50;6.75;;;;;-147.17;100.00;-15917.19;5041469;28;51036;-48
2023/03/21 06:10:05;;;;;;;;;5.75;4.25;;;;;-147.17;100.00;-15917.19;5050275;28;51297;-50
2023/03/21 06:12:31;;;;;;;;;7.00;7.00;;;;;-147.17;100.00;-15917.19;5032791;28;52202;-48
2023/03/21 06:14:56;;;;;;;;;8.25;7.75;;;;;-147.17;100.00;-15917.19;5050174;28;51097;-47
2023/03/21 06:17:22;;;;;;;;;7.25;7.25;;;;;-147.17;100.00;-15917.19;5044957;28;51458;-51
2023/03/21 06:19:47;;;;;;;;;7.50;7.50;;;;;-147.17;100.00;-15917.19;5047869;28;51206;-48
2023/03/21 06:22:12;;;;;;;;;9.25;8.00;;;;;-147.17;100.00;-15917.19;5048806;28;58374;-49
2023/03/21 06:24:38;;;;;;;;;5.50;5.50;;;;;-147.17;100.00;-15917.19;5047309;28;52023;-51
2023/03/21 06:27:03;;;;;;;;;8.00;7.00;;;;;-147.17;100.00;-15917.19;5047296;28;51088;-47
2023/03/21 06:29:28;;;;;;;;;10.00;10.00;;;;;-147.17;100.00;-15917.19;5054650;28;51054;-48
2023/03/21 06:31:54;;;;;;;;;9.50;7.75;;;;;-147.17;100.00;-15917.19;5052405;28;51152;-48
2023/03/21 06:34:19;;;;;;;;;11.25;10.00;;;;;-147.17;100.00;-15917.19;5049786;28;51200;-46
2023/03/21 06:36:45;;;;;;;;;10.75;10.00;;;;;-147.17;100.00;-15917.19;5045260;28;52923;-46
2023/03/21 06:39:11;;;;;;;;;8.75;8.25;;;;;-147.17;100.00;-15917.19;5054238;28;51113;-49
2023/03/21 06:41:37;;;;;;;;;9.25;8.25;;;;;-147.17;100.00;-15917.19;5052749;28;51401;-48
2023/03/21 06:44:02;;;;;;;;;12.50;11.75;;;;;-147.17;100.00;-15917.19;5040147;28;51134;-47
2023/03/21 06:46:28;;;;;;;;;9.00;7.00;;;;;-147.17;100.00;-15917.19;5041237;28;51025;-50
2023/03/21 06:48:53;;;;;;;;;9.25;8.25;;;;;-147.17;100.00;-15917.19;5053651;28;51153;-47
2023/03/21 06:51:19;;;;;;;;;11.50;11.50;;;;;-147.17;100.00;-15917.19;5034582;28;52922;-50
2023/03/21 06:53:44;;;;;;;;;10.75;9.00;;;;;-147.17;100.00;-15917.19;5053006;28;51263;-49
2023/03/21 06:56:11;;;;;;;;;10.25;9.25;;;;;-147.17;100.00;-15917.19;5053860;28;51148;-49
2023/03/21 06:58:37;;;;;;;;;9.00;8.25;;;;;-147.17;100.00;-15917.19;5053352;28;51252;-47
2023/03/21 07:01:03;;;;;;;;;8.50;8.50;;;;;-147.17;100.00;-15917.19;5037530;28;51137;-49
2023/03/21 07:03:28;;;;;;;;;9.50;8.25;;;;;-147.17;100.00;-15917.19;5045918;28;51281;-46
2023/03/21 07:05:54;;;;;;;;;12.00;10.50;;;;;-147.17;100.00;-15917.19;5051534;28;51220;-48
2023/03/21 07:08:20;;;;;;;;;9.00;8.25;;;;;-147.17;100.00;-15917.19;5055304;28;51225;-48
2023/03/21 07:10:46;;;;;;;;;9.50;9.50;;;;;-147.17;100.00;-15917.19;5046666;28;51078;-47
2023/03/21 07:13:12;;;;;;;;;9.00;9.00;;;;;-147.17;100.00;-15917.19;5047091;28;52342;-50
2023/03/21 07:15:38;;;;;;;;;13.25;12.00;;;;;-147.17;100.00;-15917.19;5035179;28;51106;-49
2023/03/21 07:18:04;;;;;;;;;8.75;8.75;;;;;-147.17;100.00;-15917.19;5052554;28;50995;-46
2023/03/21 07:20:30;;;;;;;;;11.50;11.00;;;;;-147.17;100.00;-15917.19;5049099;28;52009;-49
2023/03/21 07:22:57;;;;;;;;;6.00;6.00;;;;;-147.17;100.00;-15917.19;5052479;28;51198;-49
2023/03/21 07:25:22;;;;;;;;;12.00;10.50;;;;;-147.17;100.00;-15917.19;5037694;28;51240;-51
2023/03/21 07:27:48;;;;;;;;;10.50;10.50;;;;;-147.17;100.00;-15917.19;5030789;28;51321;-48
2023/03/21 07:30:16;;;;;;;;;11.25;11.25;;;;;-147.17;100.00;-15917.19;5034537;28;52651;-48
2023/03/21 07:32:44;;;;;;;;;8.50;8.50;;;;;-147.17;100.00;-15917.19;5032027;28;51273;-49
2023/03/21 07:35:11;;;;;;;;;15.50;13.00;;;;;-147.17;100.00;-15917.19;5044699;28;51310;-49
2023/03/21 07:37:37;;;;;;;;;9.25;8.75;;;;;-147.17;100.00;-15917.19;5047753;28;51336;-49
2023/03/21 07:40:09;;;;;;;;;14.75;13.50;;;;;-147.17;100.00;-15917.19;5048211;28;51124;-48
2023/03/21 07:42:39;;;;;;;;;10.00;10.00;;;;;-147.17;100.00;-15917.19;5045449;28;51127;-50
2023/03/21 07:45:05;;;;;;;;;12.00;12.00;;;;;-147.17;100.00;-15917.19;5055214;28;51311;-47
2023/03/21 07:47:31;;;;;;;;;10.25;10.25;;;;;-147.17;100.00;-15917.19;5050147;28;51442;-50
2023/03/21 07:49:56;;;;;;;;;12.75;12.25;;;;;-147.17;100.00;-15917.19;5045577;28;52245;-50
2023/03/21 07:52:21;;;;;;;;;13.50;12.50;;;;;-147.17;100.00;-15917.19;5049688;28;51301;-49
2023/03/21 07:54:47;;;;;;;;;11.50;11.00;;;;;-147.17;100.00;-15917.19;5052275;28;51202;-48
2023/03/21 07:57:12;;;;;;;;;11.25;11.25;;;;;-147.17;100.00;-15917.19;5030346;28;52040;-49
2023/03/21 07:59:37;;;;;;;;;9.50;9.50;;;;;-147.17;100.00;-15917.19;5042591;28;51587;-48
2023/03/21 08:02:03;;;;;;;;;16.50;14.75;;;;;-147.17;100.00;-15917.19;5029617;28;51054;-48
2023/03/21 08:04:28;;;;;;;;;12.00;12.00;;;;;-147.17;100.00;-15917.19;5047959;28;51478;-50
2023/03/21 08:06:53;;;;;;;;;10.50;9.50;;;;;-147.17;100.00;-15917.19;5047175;28;51361;-48
2023/03/21 08:09:19;;;;;;;;;12.50;11.75;;;;;-147.17;100.00;-15917.19;5047914;28;52299;-48
2023/03/21 08:11:44;;;;;;;;;9.50;9.50;;;;;-147.17;100.00;-15917.19;5044461;28;51022;-49
2023/03/21 08:14:10;;;;;;;;;11.25;10.50;;;;;-147.17;100.00;-15917.19;5027335;28;52211;-48
2023/03/21 08:16:36;;;;;;;;;14.00;14.00;;;;;-147.17;100.00;-15917.19;5042541;28;51324;-49
2023/03/21 08:19:01;;;;;;;;;10.00;10.00;;;;;-147.17;100.00;-15917.19;5026424;28;53069;-48
2023/03/21 08:21:27;;;;;;;;;14.00;13.25;;;;;-147.17;100.00;-15917.19;5048675;28;51148;-47
2023/03/21 08:23:52;;;;;;;;;9.00;7.00;;;;;-147.17;100.00;-15917.19;5048079;28;51499;-49
2023/03/21 08:26:18;;;;;;;;;12.00;11.75;;;;;-147.17;100.00;-15917.19;5048486;28;51177;-50
2023/03/21 08:28:45;;;;;;;;;12.00;12.00;;;;;-147.17;100.00;-15917.19;5052153;28;51146;-50
2023/03/21 08:31:12;;;;;;;;;13.50;12.50;;;;;-147.17;100.00;-15917.19;5033161;28;51090;-49
2023/03/21 08:33:38;;;;;;;;;12.00;11.25;;;;;-147.17;100.00;-15917.19;5050990;28;51078;-53
2023/03/21 08:36:04;;;;;;;;;16.00;13.00;;;;;-147.17;100.00;-15917.19;5032492;28;51531;-49
2023/03/21 08:38:32;;;;;;;;;13.75;13.50;;;;;-147.17;100.00;-15917.19;5030754;28;52184;-49
2023/03/21 08:40:59;;;;;;;;;14.00;12.25;;;;;-147.17;100.00;-15917.19;5045860;28;51633;-48
2023/03/21 08:43:25;;;;;;;;;16.75;15.25;;;;;-147.17;100.00;-15917.19;5051176;28;51217;-48
2023/03/21 08:45:51;;;;;;;;;14.25;13.75;;;;;-147.17;100.00;-15917.19;5052259;28;51033;-52
2023/03/21 08:48:17;;;;;;;;;11.75;11.25;;;;;-147.17;100.00;-15917.19;5051289;28;51764;-48
2023/03/21 08:50:42;;;;;;;;;20.50;19.50;;;;;-147.17;100.00;-15917.19;5051275;28;51036;-49
2023/03/21 08:53:08;;;;;;;;;11.25;10.00;;;;;-147.17;100.00;-15917.19;5050841;28;51163;-48
2023/03/21 08:55:34;;;;;;;;;12.75;11.50;;;;;-147.17;100.00;-15917.19;5052189;28;51137;-48
2023/03/21 08:58:00;;;;;;;;;14.00;12.50;;;;;-147.17;100.00;-15917.19;5052226;28;51109;-49
2023/03/21 09:00:28;;;;;;;;;11.75;11.00;;;;;-147.17;100.00;-15917.19;5039434;28;50930;-48
2023/03/21 09:02:56;;;;;;;;;13.75;11.75;;;;;-147.17;100.00;-15917.19;5051969;28;51279;-51
2023/03/21 09:05:24;;;;;;;;;14.75;13.75;;;;;-147.17;100.00;-15917.19;5044754;28;51133;-49
2023/03/21 09:07:51;;;;;;;;;12.00;11.00;;;;;-147.17;100.00;-15917.19;5050867;28;51992;-49
2023/03/21 09:10:19;;;;;;;;;12.75;12.00;;;;;-147.17;100.00;-15917.19;5049289;28;51038;-49
2023/03/21 09:12:45;;;;;;;;;16.50;14.75;;;;;-147.17;100.00;-15917.19;5042862;28;51133;-49
2023/03/21 09:15:17;;;;;;;;;14.00;13.25;;;;;-147.17;100.00;-15917.19;5035112;28;52057;-49
2023/03/21 09:17:43;;;;;;;;;10.00;10.00;;;;;-147.17;100.00;-15668.00;5005545;28;53171;-48
2023/03/21 09:20:17;;;;;;;;;11.00;11.00;;;;;-147.17;100.00;-15915.72;5055170;28;51089;-48
2023/03/21 09:22:48;;;;;;;;;10.33;9.33;;;;;-147.17;100.00;-15915.72;5051320;28;51430;-48
2023/03/21 09:25:15;;;;;;;;;8.00;8.00;;;;;-147.17;100.00;-14924.75;5048701;28;51084;-49
2023/03/21 09:27:41;;;;;;;;;10.67;10.67;;;;;-147.17;100.00;-15668.00;5048063;28;51808;-51
2023/03/21 09:30:08;;;;;;;;;8.67;8.33;;;;;-147.17;100.00;-15420.25;5040188;28;52453;-49
2023/03/21 09:32:35;;;;;;;;;6.67;6.33;;;;;-147.17;100.00;-15420.25;5033205;28;51058;-49
2023/03/21 09:35:01;;;;;;;;;7.00;7.00;;;;;-147.17;100.00;-15172.50;5049557;28;51188;-48
2023/03/21 09:37:31;;;;;;;;;9.00;9.00;;;;;-147.17;100.00;-15420.25;5031913;28;52598;-51
2023/03/21 09:39:57;;;;;;;;;8.00;8.00;;;;;-147.17;100.00;-15668.00;5046749;28;51085;-51
2023/03/21 09:43:00;;;;;;;;;6.00;5.33;;;;;-147.17;100.00;-15668.00;5051207;28;51141;-47
2023/03/21 09:45:46;;;;;;;;;7.67;6.33;;;;;-147.17;100.00;-15172.50;5049979;28;51188;-50
2023/03/21 09:48:28;;;;;;;;;9.00;8.33;;;;;-147.17;100.00;-14676.94;5050552;28;53082;-49
2023/03/21 09:50:54;;;;;;;;;7.00;7.00;;;;;-147.17;100.00;-15172.50;5048130;28;50965;-49
2023/03/21 09:53:31;;;;;;;;;11.00;9.00;;;;;-147.17;100.00;-14676.94;5049043;28;51377;-52
2023/03/21 09:55:59;;;;;;;;;9.67;8.67;;;;;-147.17;100.00;-15172.50;5050076;28;51138;-47
2023/03/21 09:58:45;;;;;;;;;8.67;8.67;;;;;-147.17;100.00;-15172.50;5050935;28;51138;-51
2023/03/21 10:01:40;;;;;;;;;8.00;7.67;;;;;-147.17;100.00;-14429.16;5047860;28;51131;-47
2023/03/21 10:04:10;;;;;;;;;9.00;8.33;;;;;-147.17;100.00;-14924.75;5053489;28;51180;-49
2023/03/21 10:06:40;;;;;;;;;6.00;5.67;;;;;-147.17;100.00;-15172.50;5054091;28;50973;-51
2023/03/21 10:09:12;;;;;;;;;8.00;8.00;;;;;-147.17;100.00;-15172.50;5053956;28;51838;-49
2023/03/21 10:11:53;;;;;;;;;5.00;5.00;;;;;-147.17;100.00;-15915.72;5043689;28;51150;-48
2023/03/21 10:14:27;;;;;;;;;7.33;7.33;;;;;-147.17;100.00;-15915.72;5054564;28;50968;-50
2023/03/21 10:17:20;;;;;;;;;5.00;3.67;;;;;-147.17;100.00;-15172.50;5054673;28;51164;-46
2023/03/21 10:19:54;;;;;;;;;7.67;7.00;;;;;-147.17;100.00;-14429.16;5053580;28;51231;-48
2023/03/21 10:22:19;;;;;;;;;7.00;6.67;;;;;-147.17;100.00;-13933.50;5054344;28;51137;-50
2023/03/21 10:24:45;;;;;;;;;9.33;8.33;;;;;-147.17;100.00;-14429.16;5053504;28;51441;-48
2023/03/21 10:27:12;;;;;;;;;6.00;6.00;;;;;-147.17;100.00;-13933.50;5048003;28;51380;-48
2023/03/21 10:29:42;;;;;;;;;9.00;9.00;;;;;-147.17;100.00;-14429.16;5053184;28;51925;-48
2023/03/21 10:32:14;;;;;;;;;8.67;8.00;;;;;-147.17;100.00;-14676.94;5053902;28;51117;-48
2023/03/21 10:34:51;;;;;;;;;8.00;8.00;;;;;-147.17;100.00;-15172.50;5049232;28;51112;-50
2023/03/21 10:37:16;;;;;;;;;8.00;8.00;;;;;-147.17;100.00;-15668.00;5047833;28;51268;-48
2023/03/21 10:39:46;;;;;;;;;9.00;8.00;;;;;-147.17;100.00;-15668.00;5053770;28;51606;-49
2023/03/21 10:42:24;;;;;;;;;7.67;7.67;;;;;-147.17;100.00;-15668.00;5054188;28;51097;-48
2023/03/21 10:44:53;;;;;;;;;7.33;7.33;;;;;-147.17;100.00;-15915.72;5052707;28;51092;-50
2023/03/21 10:47:31;;;;;;;;;6.67;6.33;;;;;-147.17;100.00;-15917.19;5053954;28;51158;-48
2023/03/21 10:50:10;;;;;;;;;8.00;6.00;;;;;-147.17;100.00;-15917.19;5035043;28;52642;-48
2023/03/21 10:52:43;;;;;;;;;8.67;8.00;;;;;-147.17;100.00;-15915.72;5051237;28;51183;-49
2023/03/21 10:55:17;;;;;;;;;8.67;8.67;;;;;-147.17;100.00;-15915.72;5053368;28;51076;-50
2023/03/21 10:57:46;;;;;;;;;8.00;7.67;;;;;-147.17;100.00;-15915.72;5052199;28;51063;-48
2023/03/21 11:00:20;;;;;;;;;7.00;7.00;;;;;-147.17;100.00;-15915.72;5045690;28;51841;-51
2023/03/21 11:02:50;;;;;;;;;10.00;7.67;;;;;-147.17;100.00;-15668.00;5053154;28;50990;-48